sensor_id;sensor_type;location;lat;lon;timestamp;P1;durP1;ratioP1;P2;durP2;ratioP2
15159;SDS011;7680;48.800;9.680;2022-08-25T00:00:26;5.30;;;4.90;;
15159;SDS011;7680;48.800;9.680;2022-08-25T00:02:59;5.65;;;5.15;;
15159;SDS011;7680;48.800;9.680;2022-08-25T00:05:35;4.90;;;4.57;;
15159;SDS011;7680;48.800;9.680;2022-08-25T00:08:08;5.53;;;5.13;;
15159;SDS011;7680;48.800;9.680;2022-08-25T00:10:43;5.63;;;5.22;;
15159;SDS011;7680;48.800;9.680;2022-08-25T00:13:33;5.43;;;5.00;;
15159;SDS011;7680;48.800;9.680;2022-08-25T00:16:07;5.43;;;4.97;;
15159;SDS011;7680;48.800;9.680;2022-08-25T00:18:40;6.15;;;5.30;;
15159;SDS011;7680;48.800;9.680;2022-08-25T00:21:15;5.50;;;5.00;;
15159;SDS011;7680;48.800;9.680;2022-08-25T00:23:49;6.05;;;5.07;;
15159;SDS011;7680;48.800;9.680;2022-08-25T00:26:24;5.75;;;5.25;;
15159;SDS011;7680;48.800;9.680;2022-08-25T00:28:57;6.00;;;5.43;;
15159;SDS011;7680;48.800;9.680;2022-08-25T00:31:32;4.85;;;4.53;;
15159;SDS011;7680;48.800;9.680;2022-08-25T00:34:10;5.50;;;5.10;;
15159;SDS011;7680;48.800;9.680;2022-08-25T00:36:47;5.20;;;4.80;;
15159;SDS011;7680;48.800;9.680;2022-08-25T00:39:22;5.55;;;5.05;;
15159;SDS011;7680;48.800;9.680;2022-08-25T00:41:58;5.28;;;4.97;;
15159;SDS011;7680;48.800;9.680;2022-08-25T00:44:32;6.18;;;5.50;;
15159;SDS011;7680;48.800;9.680;2022-08-25T00:47:05;5.55;;;5.15;;
15159;SDS011;7680;48.800;9.680;2022-08-25T00:49:41;5.68;;;5.28;;
15159;SDS011;7680;48.800;9.680;2022-08-25T00:52:19;5.97;;;5.57;;
15159;SDS011;7680;48.800;9.680;2022-08-25T00:54:57;5.35;;;4.95;;
15159;SDS011;7680;48.800;9.680;2022-08-25T00:57:40;5.68;;;5.28;;
15159;SDS011;7680;48.800;9.680;2022-08-25T01:00:20;5.88;;;5.47;;
15159;SDS011;7680;48.800;9.680;2022-08-25T01:02:58;5.85;;;5.43;;
15159;SDS011;7680;48.800;9.680;2022-08-25T01:05:31;6.10;;;5.60;;
15159;SDS011;7680;48.800;9.680;2022-08-25T01:08:05;5.80;;;5.30;;
15159;SDS011;7680;48.800;9.680;2022-08-25T01:10:41;5.72;;;5.22;;
15159;SDS011;7680;48.800;9.680;2022-08-25T01:13:18;6.15;;;5.72;;
15159;SDS011;7680;48.800;9.680;2022-08-25T01:15:55;6.22;;;5.72;;
15159;SDS011;7680;48.800;9.680;2022-08-25T01:18:31;6.57;;;5.97;;
15159;SDS011;7680;48.800;9.680;2022-08-25T01:21:19;5.82;;;5.35;;
15159;SDS011;7680;48.800;9.680;2022-08-25T01:23:56;5.68;;;5.15;;
15159;SDS011;7680;48.800;9.680;2022-08-25T01:26:32;6.43;;;5.82;;
15159;SDS011;7680;48.800;9.680;2022-08-25T01:29:07;6.53;;;5.93;;
15159;SDS011;7680;48.800;9.680;2022-08-25T01:31:56;6.07;;;5.47;;
15159;SDS011;7680;48.800;9.680;2022-08-25T01:34:34;6.72;;;6.22;;
15159;SDS011;7680;48.800;9.680;2022-08-25T01:37:13;6.10;;;5.60;;
15159;SDS011;7680;48.800;9.680;2022-08-25T01:39:49;6.50;;;6.00;;
15159;SDS011;7680;48.800;9.680;2022-08-25T01:42:28;6.45;;;5.88;;
15159;SDS011;7680;48.800;9.680;2022-08-25T01:45:13;6.50;;;6.00;;
15159;SDS011;7680;48.800;9.680;2022-08-25T01:47:47;6.55;;;5.95;;
15159;SDS011;7680;48.800;9.680;2022-08-25T01:50:20;6.43;;;5.93;;
15159;SDS011;7680;48.800;9.680;2022-08-25T01:52:55;6.55;;;5.95;;
15159;SDS011;7680;48.800;9.680;2022-08-25T01:55:35;6.80;;;6.20;;
15159;SDS011;7680;48.800;9.680;2022-08-25T01:58:25;7.13;;;6.53;;
15159;SDS011;7680;48.800;9.680;2022-08-25T02:01:01;7.53;;;6.75;;
15159;SDS011;7680;48.800;9.680;2022-08-25T02:03:38;7.32;;;6.72;;
15159;SDS011;7680;48.800;9.680;2022-08-25T02:06:17;8.40;;;7.70;;
15159;SDS011;7680;48.800;9.680;2022-08-25T02:09:03;7.55;;;6.95;;
15159;SDS011;7680;48.800;9.680;2022-08-25T02:11:40;7.78;;;7.18;;
15159;SDS011;7680;48.800;9.680;2022-08-25T02:14:16;8.13;;;7.43;;
15159;SDS011;7680;48.800;9.680;2022-08-25T02:16:51;8.50;;;7.80;;
15159;SDS011;7680;48.800;9.680;2022-08-25T02:19:25;8.38;;;7.72;;
15159;SDS011;7680;48.800;9.680;2022-08-25T02:22:01;9.38;;;8.48;;
15159;SDS011;7680;48.800;9.680;2022-08-25T02:24:36;9.00;;;8.20;;
15159;SDS011;7680;48.800;9.680;2022-08-25T02:27:09;8.48;;;7.68;;
15159;SDS011;7680;48.800;9.680;2022-08-25T02:29:42;8.20;;;7.50;;
15159;SDS011;7680;48.800;9.680;2022-08-25T02:32:15;8.88;;;8.07;;
15159;SDS011;7680;48.800;9.680;2022-08-25T02:34:48;9.63;;;8.82;;
15159;SDS011;7680;48.800;9.680;2022-08-25T02:37:22;9.10;;;8.30;;
15159;SDS011;7680;48.800;9.680;2022-08-25T02:39:56;8.15;;;7.45;;
15159;SDS011;7680;48.800;9.680;2022-08-25T02:42:30;8.30;;;7.60;;
15159;SDS011;7680;48.800;9.680;2022-08-25T02:45:04;6.97;;;6.38;;
15159;SDS011;7680;48.800;9.680;2022-08-25T02:47:38;7.70;;;7.00;;
15159;SDS011;7680;48.800;9.680;2022-08-25T02:50:12;7.25;;;6.65;;
15159;SDS011;7680;48.800;9.680;2022-08-25T02:52:45;6.82;;;6.22;;
15159;SDS011;7680;48.800;9.680;2022-08-25T02:55:22;7.07;;;6.47;;
15159;SDS011;7680;48.800;9.680;2022-08-25T02:57:55;6.90;;;6.35;;
15159;SDS011;7680;48.800;9.680;2022-08-25T03:00:28;8.05;;;7.35;;
15159;SDS011;7680;48.800;9.680;2022-08-25T03:03:02;7.53;;;6.88;;
15159;SDS011;7680;48.800;9.680;2022-08-25T03:05:36;7.03;;;6.43;;
15159;SDS011;7680;48.800;9.680;2022-08-25T03:08:10;7.32;;;6.72;;
15159;SDS011;7680;48.800;9.680;2022-08-25T03:10:45;8.20;;;7.50;;
15159;SDS011;7680;48.800;9.680;2022-08-25T03:13:22;7.78;;;7.07;;
15159;SDS011;7680;48.800;9.680;2022-08-25T03:15:55;8.82;;;8.02;;
15159;SDS011;7680;48.800;9.680;2022-08-25T03:18:28;8.55;;;7.85;;
15159;SDS011;7680;48.800;9.680;2022-08-25T03:21:02;8.55;;;7.78;;
15159;SDS011;7680;48.800;9.680;2022-08-25T03:23:36;8.13;;;7.40;;
15159;SDS011;7680;48.800;9.680;2022-08-25T03:26:11;9.48;;;8.48;;
15159;SDS011;7680;48.800;9.680;2022-08-25T03:29:02;8.85;;;8.02;;
15159;SDS011;7680;48.800;9.680;2022-08-25T03:31:36;8.45;;;7.75;;
15159;SDS011;7680;48.800;9.680;2022-08-25T03:34:09;7.35;;;6.75;;
15159;SDS011;7680;48.800;9.680;2022-08-25T03:36:42;8.45;;;7.65;;
15159;SDS011;7680;48.800;9.680;2022-08-25T03:39:18;8.05;;;7.35;;
15159;SDS011;7680;48.800;9.680;2022-08-25T03:41:54;8.07;;;7.38;;
15159;SDS011;7680;48.800;9.680;2022-08-25T03:44:27;7.90;;;7.20;;
15159;SDS011;7680;48.800;9.680;2022-08-25T03:47:01;8.80;;;8.10;;
15159;SDS011;7680;48.800;9.680;2022-08-25T03:49:34;8.40;;;7.60;;
15159;SDS011;7680;48.800;9.680;2022-08-25T03:52:07;8.50;;;7.80;;
15159;SDS011;7680;48.800;9.680;2022-08-25T03:54:40;7.63;;;6.88;;
15159;SDS011;7680;48.800;9.680;2022-08-25T03:57:15;8.15;;;7.40;;
15159;SDS011;7680;48.800;9.680;2022-08-25T03:59:50;7.70;;;7.07;;
15159;SDS011;7680;48.800;9.680;2022-08-25T04:02:23;7.90;;;7.15;;
15159;SDS011;7680;48.800;9.680;2022-08-25T04:04:57;8.13;;;7.43;;
15159;SDS011;7680;48.800;9.680;2022-08-25T04:07:30;9.23;;;8.38;;
15159;SDS011;7680;48.800;9.680;2022-08-25T04:10:03;8.98;;;8.18;;
15159;SDS011;7680;48.800;9.680;2022-08-25T04:12:38;8.98;;;8.27;;
15159;SDS011;7680;48.800;9.680;2022-08-25T04:15:11;8.98;;;8.18;;
15159;SDS011;7680;48.800;9.680;2022-08-25T04:17:45;8.98;;;8.18;;
15159;SDS011;7680;48.800;9.680;2022-08-25T04:20:21;9.23;;;8.25;;
15159;SDS011;7680;48.800;9.680;2022-08-25T04:22:54;9.40;;;8.60;;
15159;SDS011;7680;48.800;9.680;2022-08-25T04:25:30;9.50;;;8.02;;
15159;SDS011;7680;48.800;9.680;2022-08-25T04:28:05;9.23;;;8.43;;
15159;SDS011;7680;48.800;9.680;2022-08-25T04:30:40;9.15;;;8.35;;
15159;SDS011;7680;48.800;9.680;2022-08-25T04:33:14;8.68;;;7.88;;
15159;SDS011;7680;48.800;9.680;2022-08-25T04:35:48;9.00;;;8.20;;
15159;SDS011;7680;48.800;9.680;2022-08-25T04:38:21;8.80;;;8.00;;
15159;SDS011;7680;48.800;9.680;2022-08-25T04:40:55;9.02;;;8.23;;
15159;SDS011;7680;48.800;9.680;2022-08-25T04:43:30;10.90;;;9.93;;
15159;SDS011;7680;48.800;9.680;2022-08-25T04:46:05;10.60;;;9.50;;
15159;SDS011;7680;48.800;9.680;2022-08-25T04:48:39;10.63;;;9.63;;
15159;SDS011;7680;48.800;9.680;2022-08-25T04:51:15;10.25;;;9.30;;
15159;SDS011;7680;48.800;9.680;2022-08-25T04:53:51;11.18;;;10.18;;
15159;SDS011;7680;48.800;9.680;2022-08-25T04:56:27;10.60;;;9.70;;
15159;SDS011;7680;48.800;9.680;2022-08-25T04:59:05;10.70;;;9.70;;
15159;SDS011;7680;48.800;9.680;2022-08-25T05:01:42;10.48;;;9.57;;
15159;SDS011;7680;48.800;9.680;2022-08-25T05:04:20;9.60;;;8.73;;
15159;SDS011;7680;48.800;9.680;2022-08-25T05:06:59;9.95;;;8.95;;
15159;SDS011;7680;48.800;9.680;2022-08-25T05:09:34;10.57;;;9.65;;
15159;SDS011;7680;48.800;9.680;2022-08-25T05:12:08;11.00;;;10.00;;
15159;SDS011;7680;48.800;9.680;2022-08-25T05:14:44;10.52;;;9.43;;
15159;SDS011;7680;48.800;9.680;2022-08-25T05:17:19;10.68;;;9.63;;
15159;SDS011;7680;48.800;9.680;2022-08-25T05:19:53;11.32;;;10.43;;
15159;SDS011;7680;48.800;9.680;2022-08-25T05:22:27;10.98;;;9.88;;
15159;SDS011;7680;48.800;9.680;2022-08-25T05:25:01;10.25;;;9.25;;
15159;SDS011;7680;48.800;9.680;2022-08-25T05:27:35;9.98;;;8.98;;
15159;SDS011;7680;48.800;9.680;2022-08-25T05:30:11;9.73;;;8.82;;
15159;SDS011;7680;48.800;9.680;2022-08-25T05:32:45;9.35;;;8.45;;
15159;SDS011;7680;48.800;9.680;2022-08-25T05:35:19;10.38;;;9.35;;
15159;SDS011;7680;48.800;9.680;2022-08-25T05:37:54;9.77;;;8.88;;
15159;SDS011;7680;48.800;9.680;2022-08-25T05:40:28;9.45;;;8.55;;
15159;SDS011;7680;48.800;9.680;2022-08-25T05:43:03;9.25;;;8.40;;
15159;SDS011;7680;48.800;9.680;2022-08-25T05:45:38;8.45;;;7.75;;
15159;SDS011;7680;48.800;9.680;2022-08-25T05:48:12;8.40;;;7.70;;
15159;SDS011;7680;48.800;9.680;2022-08-25T05:50:49;9.05;;;8.25;;
15159;SDS011;7680;48.800;9.680;2022-08-25T05:53:24;9.30;;;8.40;;
15159;SDS011;7680;48.800;9.680;2022-08-25T05:56:04;8.60;;;7.75;;
15159;SDS011;7680;48.800;9.680;2022-08-25T05:58:39;8.77;;;7.97;;
15159;SDS011;7680;48.800;9.680;2022-08-25T06:01:24;8.52;;;7.82;;
15159;SDS011;7680;48.800;9.680;2022-08-25T06:04:17;8.38;;;7.68;;
15159;SDS011;7680;48.800;9.680;2022-08-25T06:06:53;8.27;;;7.57;;
15159;SDS011;7680;48.800;9.680;2022-08-25T06:09:27;9.07;;;8.35;;
15159;SDS011;7680;48.800;9.680;2022-08-25T06:12:01;8.50;;;7.70;;
15159;SDS011;7680;48.800;9.680;2022-08-25T06:14:37;8.45;;;7.75;;
15159;SDS011;7680;48.800;9.680;2022-08-25T06:17:12;9.23;;;8.43;;
15159;SDS011;7680;48.800;9.680;2022-08-25T06:19:45;8.68;;;7.88;;
15159;SDS011;7680;48.800;9.680;2022-08-25T06:22:18;9.80;;;9.00;;
15159;SDS011;7680;48.800;9.680;2022-08-25T06:24:51;9.13;;;8.25;;
15159;SDS011;7680;48.800;9.680;2022-08-25T06:27:25;9.60;;;8.70;;
15159;SDS011;7680;48.800;9.680;2022-08-25T06:29:58;9.88;;;9.13;;
15159;SDS011;7680;48.800;9.680;2022-08-25T06:32:40;10.15;;;9.20;;
15159;SDS011;7680;48.800;9.680;2022-08-25T06:35:16;10.13;;;9.32;;
15159;SDS011;7680;48.800;9.680;2022-08-25T06:37:51;10.07;;;9.07;;
15159;SDS011;7680;48.800;9.680;2022-08-25T06:40:24;9.77;;;8.98;;
15159;SDS011;7680;48.800;9.680;2022-08-25T06:42:58;10.90;;;9.90;;
15159;SDS011;7680;48.800;9.680;2022-08-25T06:45:31;10.45;;;9.55;;
15159;SDS011;7680;48.800;9.680;2022-08-25T06:48:06;10.27;;;9.38;;
15159;SDS011;7680;48.800;9.680;2022-08-25T06:50:39;10.50;;;9.52;;
15159;SDS011;7680;48.800;9.680;2022-08-25T06:53:13;10.68;;;9.75;;
15159;SDS011;7680;48.800;9.680;2022-08-25T06:55:54;9.77;;;8.98;;
15159;SDS011;7680;48.800;9.680;2022-08-25T06:58:32;10.88;;;9.77;;
15159;SDS011;7680;48.800;9.680;2022-08-25T07:01:06;9.73;;;8.93;;
15159;SDS011;7680;48.800;9.680;2022-08-25T07:03:53;8.68;;;7.88;;
15159;SDS011;7680;48.800;9.680;2022-08-25T07:06:30;9.10;;;8.25;;
15159;SDS011;7680;48.800;9.680;2022-08-25T07:09:06;9.20;;;8.40;;
15159;SDS011;7680;48.800;9.680;2022-08-25T07:11:41;9.00;;;8.30;;
15159;SDS011;7680;48.800;9.680;2022-08-25T07:14:15;8.60;;;7.90;;
15159;SDS011;7680;48.800;9.680;2022-08-25T07:16:49;9.23;;;8.30;;
15159;SDS011;7680;48.800;9.680;2022-08-25T07:19:24;8.68;;;7.97;;
15159;SDS011;7680;48.800;9.680;2022-08-25T07:21:57;8.13;;;7.45;;
15159;SDS011;7680;48.800;9.680;2022-08-25T07:24:31;9.10;;;8.35;;
15159;SDS011;7680;48.800;9.680;2022-08-25T07:27:04;8.45;;;7.78;;
15159;SDS011;7680;48.800;9.680;2022-08-25T07:29:37;8.55;;;7.85;;
15159;SDS011;7680;48.800;9.680;2022-08-25T07:32:13;7.90;;;7.30;;
15159;SDS011;7680;48.800;9.680;2022-08-25T07:34:47;7.45;;;6.95;;
15159;SDS011;7680;48.800;9.680;2022-08-25T07:37:39;7.30;;;6.70;;
15159;SDS011;7680;48.800;9.680;2022-08-25T07:40:20;8.32;;;7.60;;
15159;SDS011;7680;48.800;9.680;2022-08-25T07:42:56;7.25;;;6.65;;
15159;SDS011;7680;48.800;9.680;2022-08-25T07:45:36;7.97;;;7.18;;
15159;SDS011;7680;48.800;9.680;2022-08-25T07:48:19;7.68;;;6.97;;
15159;SDS011;7680;48.800;9.680;2022-08-25T07:50:54;7.80;;;7.00;;
15159;SDS011;7680;48.800;9.680;2022-08-25T07:53:27;8.00;;;7.20;;
15159;SDS011;7680;48.800;9.680;2022-08-25T07:56:01;7.80;;;7.20;;
15159;SDS011;7680;48.800;9.680;2022-08-25T07:58:39;7.50;;;6.93;;
15159;SDS011;7680;48.800;9.680;2022-08-25T08:01:15;6.95;;;6.40;;
15159;SDS011;7680;48.800;9.680;2022-08-25T08:03:51;7.45;;;6.50;;
15159;SDS011;7680;48.800;9.680;2022-08-25T08:06:25;7.65;;;7.05;;
15159;SDS011;7680;48.800;9.680;2022-08-25T08:08:59;7.63;;;7.10;;
15159;SDS011;7680;48.800;9.680;2022-08-25T08:11:33;7.75;;;7.15;;
15159;SDS011;7680;48.800;9.680;2022-08-25T08:14:23;7.45;;;6.85;;
15159;SDS011;7680;48.800;9.680;2022-08-25T08:16:57;7.75;;;7.07;;
15159;SDS011;7680;48.800;9.680;2022-08-25T08:19:30;7.72;;;7.07;;
15159;SDS011;7680;48.800;9.680;2022-08-25T08:22:05;7.22;;;6.63;;
15159;SDS011;7680;48.800;9.680;2022-08-25T08:24:41;7.53;;;6.93;;
15159;SDS011;7680;48.800;9.680;2022-08-25T08:27:26;7.28;;;6.65;;
15159;SDS011;7680;48.800;9.680;2022-08-25T08:29:59;7.65;;;7.05;;
15159;SDS011;7680;48.800;9.680;2022-08-25T08:32:33;6.97;;;6.47;;
15159;SDS011;7680;48.800;9.680;2022-08-25T08:35:26;7.75;;;6.88;;
15159;SDS011;7680;48.800;9.680;2022-08-25T08:38:01;7.13;;;6.50;;
15159;SDS011;7680;48.800;9.680;2022-08-25T08:40:47;6.63;;;6.03;;
15159;SDS011;7680;48.800;9.680;2022-08-25T08:43:55;6.57;;;6.07;;
15159;SDS011;7680;48.800;9.680;2022-08-25T08:46:39;7.00;;;6.40;;
15159;SDS011;7680;48.800;9.680;2022-08-25T08:49:27;6.97;;;6.28;;
15159;SDS011;7680;48.800;9.680;2022-08-25T08:52:07;6.88;;;6.38;;
15159;SDS011;7680;48.800;9.680;2022-08-25T08:54:44;7.15;;;6.55;;
15159;SDS011;7680;48.800;9.680;2022-08-25T08:57:24;6.38;;;5.78;;
15159;SDS011;7680;48.800;9.680;2022-08-25T09:00:01;9.35;;;6.80;;
15159;SDS011;7680;48.800;9.680;2022-08-25T09:02:39;6.85;;;6.18;;
15159;SDS011;7680;48.800;9.680;2022-08-25T09:05:23;6.25;;;5.75;;
15159;SDS011;7680;48.800;9.680;2022-08-25T09:08:01;6.28;;;5.78;;
15159;SDS011;7680;48.800;9.680;2022-08-25T09:10:41;5.93;;;5.43;;
15159;SDS011;7680;48.800;9.680;2022-08-25T09:13:31;6.93;;;6.32;;
15159;SDS011;7680;48.800;9.680;2022-08-25T09:16:26;6.25;;;5.75;;
15159;SDS011;7680;48.800;9.680;2022-08-25T09:19:32;6.55;;;6.03;;
15159;SDS011;7680;48.800;9.680;2022-08-25T09:22:30;6.22;;;5.72;;
15159;SDS011;7680;48.800;9.680;2022-08-25T09:25:19;6.30;;;5.70;;
15159;SDS011;7680;48.800;9.680;2022-08-25T09:28:24;5.63;;;5.18;;
15159;SDS011;7680;48.800;9.680;2022-08-25T09:31:03;6.43;;;6.00;;
15159;SDS011;7680;48.800;9.680;2022-08-25T09:33:44;6.32;;;5.68;;
15159;SDS011;7680;48.800;9.680;2022-08-25T09:36:18;5.90;;;5.40;;
15159;SDS011;7680;48.800;9.680;2022-08-25T09:38:51;6.47;;;5.97;;
15159;SDS011;7680;48.800;9.680;2022-08-25T09:41:40;6.07;;;5.68;;
15159;SDS011;7680;48.800;9.680;2022-08-25T09:47:26;6.07;;;5.57;;
15159;SDS011;7680;48.800;9.680;2022-08-25T09:50:00;6.35;;;5.75;;
15159;SDS011;7680;48.800;9.680;2022-08-25T09:52:36;6.03;;;5.53;;
15159;SDS011;7680;48.800;9.680;2022-08-25T09:55:20;5.93;;;5.43;;
15159;SDS011;7680;48.800;9.680;2022-08-25T09:58:03;6.50;;;5.90;;
15159;SDS011;7680;48.800;9.680;2022-08-25T10:01:05;6.22;;;5.70;;
15159;SDS011;7680;48.800;9.680;2022-08-25T10:03:52;6.55;;;6.00;;
15159;SDS011;7680;48.800;9.680;2022-08-25T10:06:33;6.45;;;5.95;;
15159;SDS011;7680;48.800;9.680;2022-08-25T10:09:22;6.50;;;6.00;;
15159;SDS011;7680;48.800;9.680;2022-08-25T10:11:59;6.13;;;5.63;;
15159;SDS011;7680;48.800;9.680;2022-08-25T10:14:35;6.15;;;5.70;;
15159;SDS011;7680;48.800;9.680;2022-08-25T10:17:16;5.47;;;5.07;;
15159;SDS011;7680;48.800;9.680;2022-08-25T10:20:11;5.93;;;5.53;;
15159;SDS011;7680;48.800;9.680;2022-08-25T10:22:48;5.70;;;5.28;;
15159;SDS011;7680;48.800;9.680;2022-08-25T10:25:26;6.07;;;5.60;;
15159;SDS011;7680;48.800;9.680;2022-08-25T10:28:03;5.90;;;5.50;;
15159;SDS011;7680;48.800;9.680;2022-08-25T10:30:46;5.88;;;5.47;;
15159;SDS011;7680;48.800;9.680;2022-08-25T10:33:33;6.07;;;5.57;;
15159;SDS011;7680;48.800;9.680;2022-08-25T10:36:29;6.03;;;5.55;;
15159;SDS011;7680;48.800;9.680;2022-08-25T10:39:21;6.18;;;5.68;;
15159;SDS011;7680;48.800;9.680;2022-08-25T10:42:15;5.88;;;5.38;;
15159;SDS011;7680;48.800;9.680;2022-08-25T10:45:04;5.72;;;5.22;;
15159;SDS011;7680;48.800;9.680;2022-08-25T10:48:18;5.57;;;5.18;;
15159;SDS011;7680;48.800;9.680;2022-08-25T10:51:28;5.85;;;5.35;;
15159;SDS011;7680;48.800;9.680;2022-08-25T10:54:18;5.75;;;5.25;;
15159;SDS011;7680;48.800;9.680;2022-08-25T10:57:07;5.45;;;4.95;;
15159;SDS011;7680;48.800;9.680;2022-08-25T10:59:54;5.85;;;5.40;;
15159;SDS011;7680;48.800;9.680;2022-08-25T11:02:42;5.40;;;5.00;;
15159;SDS011;7680;48.800;9.680;2022-08-25T11:05:39;5.78;;;5.30;;
15159;SDS011;7680;48.800;9.680;2022-08-25T11:08:16;5.88;;;5.45;;
15159;SDS011;7680;48.800;9.680;2022-08-25T11:10:55;5.75;;;5.35;;
15159;SDS011;7680;48.800;9.680;2022-08-25T11:13:39;5.68;;;5.28;;
15159;SDS011;7680;48.800;9.680;2022-08-25T11:16:17;5.25;;;4.85;;
15159;SDS011;7680;48.800;9.680;2022-08-25T11:19:01;5.80;;;5.30;;
15159;SDS011;7680;48.800;9.680;2022-08-25T11:21:43;5.60;;;5.10;;
15159;SDS011;7680;48.800;9.680;2022-08-25T11:24:26;4.25;;;3.95;;
15159;SDS011;7680;48.800;9.680;2022-08-25T11:27:16;4.90;;;4.50;;
15159;SDS011;7680;48.800;9.680;2022-08-25T11:29:57;5.13;;;4.72;;
15159;SDS011;7680;48.800;9.680;2022-08-25T11:32:37;5.68;;;5.18;;
15159;SDS011;7680;48.800;9.680;2022-08-25T11:35:12;5.53;;;5.13;;
15159;SDS011;7680;48.800;9.680;2022-08-25T11:38:01;5.15;;;4.75;;
15159;SDS011;7680;48.800;9.680;2022-08-25T11:40:53;5.68;;;5.28;;
15159;SDS011;7680;48.800;9.680;2022-08-25T11:43:48;5.32;;;4.93;;
15159;SDS011;7680;48.800;9.680;2022-08-25T11:46:51;5.22;;;4.75;;
15159;SDS011;7680;48.800;9.680;2022-08-25T11:49:52;5.45;;;5.10;;
15159;SDS011;7680;48.800;9.680;2022-08-25T11:52:43;5.32;;;5.03;;
15159;SDS011;7680;48.800;9.680;2022-08-25T11:55:25;5.13;;;4.72;;
15159;SDS011;7680;48.800;9.680;2022-08-25T11:58:27;4.78;;;4.38;;
15159;SDS011;7680;48.800;9.680;2022-08-25T12:04:37;4.90;;;4.50;;
15159;SDS011;7680;48.800;9.680;2022-08-25T12:07:23;4.90;;;4.60;;
15159;SDS011;7680;48.800;9.680;2022-08-25T12:10:12;4.88;;;4.47;;
15159;SDS011;7680;48.800;9.680;2022-08-25T12:13:01;4.45;;;4.15;;
15159;SDS011;7680;48.800;9.680;2022-08-25T12:15:59;4.25;;;3.95;;
15159;SDS011;7680;48.800;9.680;2022-08-25T12:18:42;4.88;;;4.57;;
15159;SDS011;7680;48.800;9.680;2022-08-25T12:21:28;4.68;;;4.38;;
15159;SDS011;7680;48.800;9.680;2022-08-25T12:24:11;4.78;;;4.47;;
15159;SDS011;7680;48.800;9.680;2022-08-25T12:26:52;4.55;;;4.25;;
15159;SDS011;7680;48.800;9.680;2022-08-25T12:29:31;4.72;;;4.32;;
15159;SDS011;7680;48.800;9.680;2022-08-25T12:32:21;5.20;;;4.70;;
15159;SDS011;7680;48.800;9.680;2022-08-25T12:35:15;4.80;;;4.40;;
15159;SDS011;7680;48.800;9.680;2022-08-25T12:38:03;4.20;;;4.00;;
15159;SDS011;7680;48.800;9.680;2022-08-25T12:40:52;4.78;;;4.38;;
15159;SDS011;7680;48.800;9.680;2022-08-25T12:43:34;4.47;;;4.18;;
15159;SDS011;7680;48.800;9.680;2022-08-25T12:46:32;4.55;;;4.22;;
15159;SDS011;7680;48.800;9.680;2022-08-25T12:49:11;4.70;;;4.35;;
15159;SDS011;7680;48.800;9.680;2022-08-25T12:52:04;4.78;;;4.38;;
15159;SDS011;7680;48.800;9.680;2022-08-25T12:54:44;4.80;;;4.40;;
15159;SDS011;7680;48.800;9.680;2022-08-25T12:57:29;4.50;;;4.13;;
15159;SDS011;7680;48.800;9.680;2022-08-25T13:00:15;4.88;;;4.57;;
15159;SDS011;7680;48.800;9.680;2022-08-25T13:06:35;4.70;;;4.30;;
15159;SDS011;7680;48.800;9.680;2022-08-25T13:09:28;5.13;;;4.75;;
15159;SDS011;7680;48.800;9.680;2022-08-25T13:12:51;4.65;;;4.35;;
15159;SDS011;7680;48.800;9.680;2022-08-25T13:15:36;4.65;;;4.35;;
15159;SDS011;7680;48.800;9.680;2022-08-25T13:18:18;4.85;;;4.45;;
15159;SDS011;7680;48.800;9.680;2022-08-25T13:21:02;4.57;;;4.15;;
15159;SDS011;7680;48.800;9.680;2022-08-25T13:23:44;4.57;;;4.28;;
15159;SDS011;7680;48.800;9.680;2022-08-25T13:26:24;5.55;;;4.65;;
15159;SDS011;7680;48.800;9.680;2022-08-25T13:29:02;5.25;;;4.80;;
15159;SDS011;7680;48.800;9.680;2022-08-25T13:31:53;4.50;;;4.10;;
15159;SDS011;7680;48.800;9.680;2022-08-25T13:34:32;4.57;;;4.18;;
15159;SDS011;7680;48.800;9.680;2022-08-25T13:37:16;4.50;;;4.20;;
15159;SDS011;7680;48.800;9.680;2022-08-25T13:40:10;4.80;;;4.45;;
15159;SDS011;7680;48.800;9.680;2022-08-25T13:42:49;4.55;;;4.15;;
15159;SDS011;7680;48.800;9.680;2022-08-25T13:45:28;4.63;;;4.30;;
15159;SDS011;7680;48.800;9.680;2022-08-25T13:48:12;5.13;;;4.72;;
15159;SDS011;7680;48.800;9.680;2022-08-25T13:51:07;5.20;;;4.80;;
15159;SDS011;7680;48.800;9.680;2022-08-25T13:53:54;4.55;;;4.22;;
15159;SDS011;7680;48.800;9.680;2022-08-25T13:56:31;5.05;;;4.32;;
15159;SDS011;7680;48.800;9.680;2022-08-25T13:59:17;4.68;;;4.30;;
15159;SDS011;7680;48.800;9.680;2022-08-25T14:01:55;5.20;;;4.80;;
15159;SDS011;7680;48.800;9.680;2022-08-25T14:04:30;5.05;;;4.63;;
15159;SDS011;7680;48.800;9.680;2022-08-25T14:07:26;4.88;;;4.57;;
15159;SDS011;7680;48.800;9.680;2022-08-25T14:10:07;4.43;;;4.13;;
15159;SDS011;7680;48.800;9.680;2022-08-25T14:12:44;4.38;;;4.00;;
15159;SDS011;7680;48.800;9.680;2022-08-25T14:15:26;4.22;;;3.85;;
15159;SDS011;7680;48.800;9.680;2022-08-25T14:18:04;4.45;;;4.15;;
15159;SDS011;7680;48.800;9.680;2022-08-25T14:20:45;4.20;;;3.90;;
15159;SDS011;7680;48.800;9.680;2022-08-25T14:23:22;4.60;;;4.25;;
15159;SDS011;7680;48.800;9.680;2022-08-25T14:25:59;4.63;;;4.30;;
15159;SDS011;7680;48.800;9.680;2022-08-25T14:28:33;4.90;;;4.50;;
15159;SDS011;7680;48.800;9.680;2022-08-25T14:31:06;4.40;;;4.00;;
15159;SDS011;7680;48.800;9.680;2022-08-25T14:33:46;4.32;;;3.97;;
15159;SDS011;7680;48.800;9.680;2022-08-25T14:36:32;5.32;;;4.35;;
15159;SDS011;7680;48.800;9.680;2022-08-25T14:39:06;4.50;;;4.20;;
15159;SDS011;7680;48.800;9.680;2022-08-25T14:41:41;4.85;;;4.43;;
15159;SDS011;7680;48.800;9.680;2022-08-25T14:44:23;4.68;;;4.30;;
15159;SDS011;7680;48.800;9.680;2022-08-25T14:46:57;4.20;;;3.90;;
15159;SDS011;7680;48.800;9.680;2022-08-25T14:49:35;4.40;;;4.15;;
15159;SDS011;7680;48.800;9.680;2022-08-25T14:52:15;4.22;;;3.92;;
15159;SDS011;7680;48.800;9.680;2022-08-25T14:54:53;4.30;;;3.90;;
15159;SDS011;7680;48.800;9.680;2022-08-25T14:57:28;5.00;;;4.47;;
15159;SDS011;7680;48.800;9.680;2022-08-25T15:00:02;5.03;;;4.63;;
15159;SDS011;7680;48.800;9.680;2022-08-25T15:02:40;4.88;;;4.50;;
15159;SDS011;7680;48.800;9.680;2022-08-25T15:05:19;5.57;;;5.10;;
15159;SDS011;7680;48.800;9.680;2022-08-25T15:07:58;4.65;;;4.25;;
15159;SDS011;7680;48.800;9.680;2022-08-25T15:10:51;5.22;;;4.75;;
15159;SDS011;7680;48.800;9.680;2022-08-25T15:13:25;4.35;;;4.05;;
15159;SDS011;7680;48.800;9.680;2022-08-25T15:15:58;4.57;;;4.28;;
15159;SDS011;7680;48.800;9.680;2022-08-25T15:18:32;4.70;;;4.30;;
15159;SDS011;7680;48.800;9.680;2022-08-25T15:21:06;4.85;;;4.47;;
15159;SDS011;7680;48.800;9.680;2022-08-25T15:23:39;4.72;;;4.38;;
15159;SDS011;7680;48.800;9.680;2022-08-25T15:26:14;5.70;;;5.30;;
15159;SDS011;7680;48.800;9.680;2022-08-25T15:28:50;4.55;;;4.25;;
15159;SDS011;7680;48.800;9.680;2022-08-25T15:31:23;5.05;;;4.65;;
15159;SDS011;7680;48.800;9.680;2022-08-25T15:33:57;5.60;;;5.10;;
15159;SDS011;7680;48.800;9.680;2022-08-25T15:36:30;5.55;;;5.00;;
15159;SDS011;7680;48.800;9.680;2022-08-25T15:39:08;5.13;;;4.72;;
15159;SDS011;7680;48.800;9.680;2022-08-25T15:41:42;4.75;;;4.35;;
15159;SDS011;7680;48.800;9.680;2022-08-25T15:44:21;4.93;;;4.50;;
15159;SDS011;7680;48.800;9.680;2022-08-25T15:46:59;4.63;;;4.32;;
15159;SDS011;7680;48.800;9.680;2022-08-25T15:49:33;4.38;;;4.00;;
15159;SDS011;7680;48.800;9.680;2022-08-25T15:52:07;4.45;;;4.05;;
15159;SDS011;7680;48.800;9.680;2022-08-25T15:54:42;4.70;;;4.30;;
15159;SDS011;7680;48.800;9.680;2022-08-25T15:57:17;4.50;;;4.20;;
15159;SDS011;7680;48.800;9.680;2022-08-25T15:59:56;10.73;;;5.60;;
15159;SDS011;7680;48.800;9.680;2022-08-25T16:02:29;4.72;;;4.32;;
15159;SDS011;7680;48.800;9.680;2022-08-25T16:05:05;4.32;;;4.00;;
15159;SDS011;7680;48.800;9.680;2022-08-25T16:07:40;4.60;;;4.25;;
15159;SDS011;7680;48.800;9.680;2022-08-25T16:10:21;4.93;;;4.53;;
15159;SDS011;7680;48.800;9.680;2022-08-25T16:12:55;4.88;;;4.50;;
15159;SDS011;7680;48.800;9.680;2022-08-25T16:19:18;4.93;;;4.60;;
15159;SDS011;7680;48.800;9.680;2022-08-25T16:21:51;5.15;;;4.75;;
15159;SDS011;7680;48.800;9.680;2022-08-25T16:24:25;4.85;;;4.45;;
15159;SDS011;7680;48.800;9.680;2022-08-25T16:26:59;5.03;;;4.65;;